sensor_id;sensor_type;location;lat;lon;timestamp;P1;durP1;ratioP1;P2;durP2;ratioP2
76848;SDS011;65814;51.134;16.980;2023-02-28T00:01:13;43.30;;;19.70;;
76848;SDS011;65814;51.134;16.980;2023-02-28T00:03:40;43.70;;;19.80;;
76848;SDS011;65814;51.134;16.980;2023-02-28T00:06:07;36.70;;;17.80;;
76848;SDS011;65814;51.134;16.980;2023-02-28T00:08:36;46.00;;;19.90;;
76848;SDS011;65814;51.134;16.980;2023-02-28T00:11:03;55.80;;;22.70;;
76848;SDS011;65814;51.134;16.980;2023-02-28T00:13:35;50.20;;;22.90;;
76848;SDS011;65814;51.134;16.980;2023-02-28T00:16:07;39.40;;;19.20;;
76848;SDS011;65814;51.134;16.980;2023-02-28T00:18:35;45.10;;;20.80;;
76848;SDS011;65814;51.134;16.980;2023-02-28T00:21:02;47.80;;;20.90;;
76848;SDS011;65814;51.134;16.980;2023-02-28T00:25:55;46.60;;;20.40;;
76848;SDS011;65814;51.134;16.980;2023-02-28T00:28:22;48.40;;;20.60;;
76848;SDS011;65814;51.134;16.980;2023-02-28T00:30:49;43.90;;;19.10;;
76848;SDS011;65814;51.134;16.980;2023-02-28T00:33:15;42.40;;;21.40;;
76848;SDS011;65814;51.134;16.980;2023-02-28T00:35:45;46.20;;;19.90;;
76848;SDS011;65814;51.134;16.980;2023-02-28T00:38:15;42.80;;;21.60;;
76848;SDS011;65814;51.134;16.980;2023-02-28T00:40:44;43.40;;;23.60;;
76848;SDS011;65814;51.134;16.980;2023-02-28T00:45:37;43.10;;;20.20;;
76848;SDS011;65814;51.134;16.980;2023-02-28T00:48:03;43.60;;;18.40;;
76848;SDS011;65814;51.134;16.980;2023-02-28T00:50:30;45.70;;;20.80;;
76848;SDS011;65814;51.134;16.980;2023-02-28T00:52:57;53.50;;;23.40;;
76848;SDS011;65814;51.134;16.980;2023-02-28T00:55:25;61.80;;;23.60;;
76848;SDS011;65814;51.134;16.980;2023-02-28T00:57:51;68.60;;;27.90;;
76848;SDS011;65814;51.134;16.980;2023-02-28T01:00:18;57.20;;;24.50;;
76848;SDS011;65814;51.134;16.980;2023-02-28T01:02:44;56.50;;;22.50;;
76848;SDS011;65814;51.134;16.980;2023-02-28T01:05:11;53.20;;;24.00;;
76848;SDS011;65814;51.134;16.980;2023-02-28T01:07:38;51.00;;;25.40;;
76848;SDS011;65814;51.134;16.980;2023-02-28T01:10:07;59.10;;;25.70;;
76848;SDS011;65814;51.134;16.980;2023-02-28T01:12:35;72.00;;;27.50;;
76848;SDS011;65814;51.134;16.980;2023-02-28T01:15:01;58.50;;;26.30;;
76848;SDS011;65814;51.134;16.980;2023-02-28T01:17:28;65.30;;;27.00;;
76848;SDS011;65814;51.134;16.980;2023-02-28T01:19:54;64.60;;;26.00;;
76848;SDS011;65814;51.134;16.980;2023-02-28T01:22:22;56.50;;;25.50;;
76848;SDS011;65814;51.134;16.980;2023-02-28T01:24:48;58.80;;;26.60;;
76848;SDS011;65814;51.134;16.980;2023-02-28T01:27:16;60.10;;;24.50;;
76848;SDS011;65814;51.134;16.980;2023-02-28T01:29:44;59.80;;;25.00;;
76848;SDS011;65814;51.134;16.980;2023-02-28T01:32:10;62.40;;;27.50;;
76848;SDS011;65814;51.134;16.980;2023-02-28T01:34:37;64.00;;;27.90;;
76848;SDS011;65814;51.134;16.980;2023-02-28T01:37:05;65.70;;;24.60;;
76848;SDS011;65814;51.134;16.980;2023-02-28T01:39:32;57.00;;;25.60;;
76848;SDS011;65814;51.134;16.980;2023-02-28T01:41:58;57.60;;;25.90;;
76848;SDS011;65814;51.134;16.980;2023-02-28T01:47:20;61.20;;;24.60;;
76848;SDS011;65814;51.134;16.980;2023-02-28T01:49:47;66.50;;;27.10;;
76848;SDS011;65814;51.134;16.980;2023-02-28T01:52:14;62.40;;;26.80;;
76848;SDS011;65814;51.134;16.980;2023-02-28T01:54:49;61.40;;;25.00;;
76848;SDS011;65814;51.134;16.980;2023-02-28T01:57:19;46.30;;;22.30;;
76848;SDS011;65814;51.134;16.980;2023-02-28T01:59:52;61.00;;;25.10;;
76848;SDS011;65814;51.134;16.980;2023-02-28T02:02:35;68.40;;;28.50;;
76848;SDS011;65814;51.134;16.980;2023-02-28T02:05:04;64.80;;;27.30;;
76848;SDS011;65814;51.134;16.980;2023-02-28T02:07:37;63.70;;;25.10;;
76848;SDS011;65814;51.134;16.980;2023-02-28T02:10:20;59.30;;;24.40;;
76848;SDS011;65814;51.134;16.980;2023-02-28T02:15:40;57.30;;;27.20;;
76848;SDS011;65814;51.134;16.980;2023-02-28T02:18:17;61.20;;;24.30;;
76848;SDS011;65814;51.134;16.980;2023-02-28T02:32:39;54.20;;;24.90;;
76848;SDS011;65814;51.134;16.980;2023-02-28T02:35:31;52.00;;;22.90;;
76848;SDS011;65814;51.134;16.980;2023-02-28T02:38:19;46.50;;;21.60;;
76848;SDS011;65814;51.134;16.980;2023-02-28T02:44:20;54.00;;;22.50;;
76848;SDS011;65814;51.134;16.980;2023-02-28T02:46:50;51.80;;;23.00;;
76848;SDS011;65814;51.134;16.980;2023-02-28T02:49:33;46.70;;;21.90;;
76848;SDS011;65814;51.134;16.980;2023-02-28T02:52:06;55.50;;;22.20;;
76848;SDS011;65814;51.134;16.980;2023-02-28T02:54:38;48.70;;;21.10;;
76848;SDS011;65814;51.134;16.980;2023-02-28T02:57:08;44.80;;;22.00;;
76848;SDS011;65814;51.134;16.980;2023-02-28T02:59:38;43.60;;;22.60;;
76848;SDS011;65814;51.134;16.980;2023-02-28T03:02:06;48.50;;;22.00;;
76848;SDS011;65814;51.134;16.980;2023-02-28T03:04:40;42.20;;;20.80;;
76848;SDS011;65814;51.134;16.980;2023-02-28T03:07:10;43.10;;;21.70;;
76848;SDS011;65814;51.134;16.980;2023-02-28T03:09:36;38.90;;;19.30;;
76848;SDS011;65814;51.134;16.980;2023-02-28T03:12:06;38.10;;;18.00;;
76848;SDS011;65814;51.134;16.980;2023-02-28T03:14:49;46.90;;;20.00;;
76848;SDS011;65814;51.134;16.980;2023-02-28T03:25:56;45.00;;;19.80;;
76848;SDS011;65814;51.134;16.980;2023-02-28T03:31:45;48.60;;;20.30;;
76848;SDS011;65814;51.134;16.980;2023-02-28T03:34:37;48.20;;;21.00;;
76848;SDS011;65814;51.134;16.980;2023-02-28T03:37:08;45.10;;;21.20;;
76848;SDS011;65814;51.134;16.980;2023-02-28T03:39:39;48.90;;;22.70;;
76848;SDS011;65814;51.134;16.980;2023-02-28T03:42:11;48.20;;;21.50;;
76848;SDS011;65814;51.134;16.980;2023-02-28T03:44:48;46.40;;;21.20;;
76848;SDS011;65814;51.134;16.980;2023-02-28T03:53:19;46.60;;;22.40;;
76848;SDS011;65814;51.134;16.980;2023-02-28T03:55:49;53.30;;;25.10;;
76848;SDS011;65814;51.134;16.980;2023-02-28T03:58:29;50.90;;;24.40;;
76848;SDS011;65814;51.134;16.980;2023-02-28T04:01:01;65.00;;;28.70;;
76848;SDS011;65814;51.134;16.980;2023-02-28T04:03:36;55.10;;;27.70;;
76848;SDS011;65814;51.134;16.980;2023-02-28T04:06:03;48.10;;;22.80;;
76848;SDS011;65814;51.134;16.980;2023-02-28T04:08:31;41.50;;;19.80;;
76848;SDS011;65814;51.134;16.980;2023-02-28T04:11:05;48.20;;;20.60;;
76848;SDS011;65814;51.134;16.980;2023-02-28T04:13:39;44.20;;;19.70;;
76848;SDS011;65814;51.134;16.980;2023-02-28T04:16:08;43.00;;;19.80;;
76848;SDS011;65814;51.134;16.980;2023-02-28T04:18:47;36.60;;;19.10;;
76848;SDS011;65814;51.134;16.980;2023-02-28T04:21:13;37.60;;;19.10;;
76848;SDS011;65814;51.134;16.980;2023-02-28T04:23:40;46.00;;;20.00;;
76848;SDS011;65814;51.134;16.980;2023-02-28T04:26:07;68.10;;;29.00;;
76848;SDS011;65814;51.134;16.980;2023-02-28T04:28:33;88.00;;;34.60;;
76848;SDS011;65814;51.134;16.980;2023-02-28T04:31:02;58.30;;;25.60;;
76848;SDS011;65814;51.134;16.980;2023-02-28T04:33:32;52.90;;;23.70;;
76848;SDS011;65814;51.134;16.980;2023-02-28T04:36:00;47.20;;;21.80;;
76848;SDS011;65814;51.134;16.980;2023-02-28T04:38:29;49.20;;;21.00;;
76848;SDS011;65814;51.134;16.980;2023-02-28T04:40:56;53.80;;;23.40;;
76848;SDS011;65814;51.134;16.980;2023-02-28T04:43:24;51.00;;;21.10;;
76848;SDS011;65814;51.134;16.980;2023-02-28T04:45:52;40.80;;;19.60;;
76848;SDS011;65814;51.134;16.980;2023-02-28T04:48:19;46.40;;;21.70;;
76848;SDS011;65814;51.134;16.980;2023-02-28T04:50:48;44.70;;;20.10;;
76848;SDS011;65814;51.134;16.980;2023-02-28T04:53:14;37.80;;;18.30;;
76848;SDS011;65814;51.134;16.980;2023-02-28T04:55:40;39.90;;;18.70;;
76848;SDS011;65814;51.134;16.980;2023-02-28T04:58:07;37.20;;;18.40;;
76848;SDS011;65814;51.134;16.980;2023-02-28T05:00:35;41.90;;;18.70;;
76848;SDS011;65814;51.134;16.980;2023-02-28T05:03:05;42.00;;;19.10;;
76848;SDS011;65814;51.134;16.980;2023-02-28T05:05:32;41.40;;;18.30;;
76848;SDS011;65814;51.134;16.980;2023-02-28T05:07:58;38.60;;;18.50;;
76848;SDS011;65814;51.134;16.980;2023-02-28T05:10:25;39.30;;;18.60;;
76848;SDS011;65814;51.134;16.980;2023-02-28T05:12:51;38.50;;;19.50;;
76848;SDS011;65814;51.134;16.980;2023-02-28T05:15:18;36.00;;;18.00;;
76848;SDS011;65814;51.134;16.980;2023-02-28T05:17:44;38.80;;;18.30;;
76848;SDS011;65814;51.134;16.980;2023-02-28T05:20:11;44.30;;;19.00;;
76848;SDS011;65814;51.134;16.980;2023-02-28T05:22:43;41.00;;;19.50;;
76848;SDS011;65814;51.134;16.980;2023-02-28T05:25:16;36.40;;;20.10;;
76848;SDS011;65814;51.134;16.980;2023-02-28T05:27:43;38.20;;;20.30;;
76848;SDS011;65814;51.134;16.980;2023-02-28T05:30:10;35.40;;;19.40;;
76848;SDS011;65814;51.134;16.980;2023-02-28T05:32:37;35.90;;;18.40;;
76848;SDS011;65814;51.134;16.980;2023-02-28T05:35:05;36.00;;;17.50;;
76848;SDS011;65814;51.134;16.980;2023-02-28T05:39:58;36.00;;;16.40;;
76848;SDS011;65814;51.134;16.980;2023-02-28T05:42:25;33.60;;;17.10;;
76848;SDS011;65814;51.134;16.980;2023-02-28T05:44:51;34.10;;;16.20;;
76848;SDS011;65814;51.134;16.980;2023-02-28T05:47:18;32.20;;;18.00;;
76848;SDS011;65814;51.134;16.980;2023-02-28T05:49:44;33.60;;;17.10;;
76848;SDS011;65814;51.134;16.980;2023-02-28T05:52:11;39.30;;;17.90;;
76848;SDS011;65814;51.134;16.980;2023-02-28T05:54:37;31.30;;;16.30;;
76848;SDS011;65814;51.134;16.980;2023-02-28T05:57:03;35.50;;;18.80;;
76848;SDS011;65814;51.134;16.980;2023-02-28T05:59:38;35.10;;;18.10;;
76848;SDS011;65814;51.134;16.980;2023-02-28T06:02:06;33.40;;;16.70;;
76848;SDS011;65814;51.134;16.980;2023-02-28T06:04:37;34.10;;;16.90;;
76848;SDS011;65814;51.134;16.980;2023-02-28T06:07:03;33.90;;;15.50;;
76848;SDS011;65814;51.134;16.980;2023-02-28T06:09:33;32.80;;;16.50;;
76848;SDS011;65814;51.134;16.980;2023-02-28T06:12:00;29.60;;;15.60;;
76848;SDS011;65814;51.134;16.980;2023-02-28T06:14:29;35.70;;;16.80;;
76848;SDS011;65814;51.134;16.980;2023-02-28T06:16:57;35.20;;;16.90;;
76848;SDS011;65814;51.134;16.980;2023-02-28T06:19:25;30.40;;;15.80;;
76848;SDS011;65814;51.134;16.980;2023-02-28T06:21:52;35.40;;;17.70;;
76848;SDS011;65814;51.134;16.980;2023-02-28T06:24:20;29.00;;;16.80;;
76848;SDS011;65814;51.134;16.980;2023-02-28T06:26:47;30.60;;;15.30;;
76848;SDS011;65814;51.134;16.980;2023-02-28T06:29:14;37.30;;;18.00;;
76848;SDS011;65814;51.134;16.980;2023-02-28T06:31:43;29.80;;;18.00;;
76848;SDS011;65814;51.134;16.980;2023-02-28T06:34:10;35.80;;;19.00;;
76848;SDS011;65814;51.134;16.980;2023-02-28T06:36:40;33.50;;;17.40;;
76848;SDS011;65814;51.134;16.980;2023-02-28T06:39:07;36.50;;;19.40;;
76848;SDS011;65814;51.134;16.980;2023-02-28T06:41:35;39.40;;;19.80;;
76848;SDS011;65814;51.134;16.980;2023-02-28T06:44:20;40.80;;;20.50;;
76848;SDS011;65814;51.134;16.980;2023-02-28T06:46:48;41.30;;;19.90;;
76848;SDS011;65814;51.134;16.980;2023-02-28T06:49:15;37.20;;;18.60;;
76848;SDS011;65814;51.134;16.980;2023-02-28T06:51:43;37.30;;;18.60;;
76848;SDS011;65814;51.134;16.980;2023-02-28T06:54:13;36.00;;;18.70;;
76848;SDS011;65814;51.134;16.980;2023-02-28T06:56:39;31.30;;;17.30;;
76848;SDS011;65814;51.134;16.980;2023-02-28T06:59:06;41.60;;;20.60;;
76848;SDS011;65814;51.134;16.980;2023-02-28T07:01:32;35.20;;;19.20;;
76848;SDS011;65814;51.134;16.980;2023-02-28T07:03:59;36.90;;;20.10;;
76848;SDS011;65814;51.134;16.980;2023-02-28T07:06:26;41.90;;;21.60;;
76848;SDS011;65814;51.134;16.980;2023-02-28T07:11:24;52.90;;;26.70;;
76848;SDS011;65814;51.134;16.980;2023-02-28T07:13:52;52.90;;;29.00;;
76848;SDS011;65814;51.134;16.980;2023-02-28T07:16:20;52.90;;;26.70;;
76848;SDS011;65814;51.134;16.980;2023-02-28T07:18:47;46.20;;;24.20;;
76848;SDS011;65814;51.134;16.980;2023-02-28T07:23:40;35.90;;;18.50;;
76848;SDS011;65814;51.134;16.980;2023-02-28T07:26:11;28.20;;;15.30;;
76848;SDS011;65814;51.134;16.980;2023-02-28T07:28:44;30.70;;;16.30;;
76848;SDS011;65814;51.134;16.980;2023-02-28T07:31:12;25.20;;;14.20;;
76848;SDS011;65814;51.134;16.980;2023-02-28T07:33:40;21.70;;;12.30;;
76848;SDS011;65814;51.134;16.980;2023-02-28T07:36:09;25.00;;;13.10;;
76848;SDS011;65814;51.134;16.980;2023-02-28T07:38:42;17.60;;;11.20;;
76848;SDS011;65814;51.134;16.980;2023-02-28T07:41:12;19.10;;;12.90;;
76848;SDS011;65814;51.134;16.980;2023-02-28T07:43:38;20.20;;;10.40;;
76848;SDS011;65814;51.134;16.980;2023-02-28T07:46:05;18.30;;;10.80;;
76848;SDS011;65814;51.134;16.980;2023-02-28T07:48:34;18.20;;;10.60;;
76848;SDS011;65814;51.134;16.980;2023-02-28T07:51:01;21.70;;;11.50;;
76848;SDS011;65814;51.134;16.980;2023-02-28T07:53:28;19.80;;;11.10;;
76848;SDS011;65814;51.134;16.980;2023-02-28T07:55:56;20.30;;;11.30;;
76848;SDS011;65814;51.134;16.980;2023-02-28T07:58:23;20.10;;;11.90;;
76848;SDS011;65814;51.134;16.980;2023-02-28T08:00:50;17.50;;;11.10;;
76848;SDS011;65814;51.134;16.980;2023-02-28T08:03:17;19.10;;;10.70;;
76848;SDS011;65814;51.134;16.980;2023-02-28T08:05:44;16.70;;;11.10;;
76848;SDS011;65814;51.134;16.980;2023-02-28T08:08:15;17.40;;;10.90;;
76848;SDS011;65814;51.134;16.980;2023-02-28T08:10:42;17.60;;;12.20;;
76848;SDS011;65814;51.134;16.980;2023-02-28T08:15:35;17.30;;;10.00;;
76848;SDS011;65814;51.134;16.980;2023-02-28T08:20:29;13.80;;;7.90;;
76848;SDS011;65814;51.134;16.980;2023-02-28T08:22:55;17.00;;;8.00;;
76848;SDS011;65814;51.134;16.980;2023-02-28T08:25:22;16.50;;;8.60;;
76848;SDS011;65814;51.134;16.980;2023-02-28T08:27:50;15.60;;;9.00;;
76848;SDS011;65814;51.134;16.980;2023-02-28T08:30:18;15.00;;;8.10;;
76848;SDS011;65814;51.134;16.980;2023-02-28T08:32:44;13.90;;;8.30;;
76848;SDS011;65814;51.134;16.980;2023-02-28T08:35:11;13.50;;;8.30;;
76848;SDS011;65814;51.134;16.980;2023-02-28T08:37:37;14.00;;;7.60;;
76848;SDS011;65814;51.134;16.980;2023-02-28T08:40:04;15.90;;;9.10;;
76848;SDS011;65814;51.134;16.980;2023-02-28T08:44:58;12.10;;;6.60;;
76848;SDS011;65814;51.134;16.980;2023-02-28T08:47:25;13.10;;;7.10;;
76848;SDS011;65814;51.134;16.980;2023-02-28T08:49:52;14.60;;;7.30;;
76848;SDS011;65814;51.134;16.980;2023-02-28T08:52:19;14.20;;;6.90;;
76848;SDS011;65814;51.134;16.980;2023-02-28T08:54:45;11.10;;;7.00;;
76848;SDS011;65814;51.134;16.980;2023-02-28T08:57:11;14.60;;;7.10;;
76848;SDS011;65814;51.134;16.980;2023-02-28T09:02:05;13.60;;;8.00;;
76848;SDS011;65814;51.134;16.980;2023-02-28T09:04:33;12.00;;;7.40;;
76848;SDS011;65814;51.134;16.980;2023-02-28T09:07:00;13.70;;;7.30;;
76848;SDS011;65814;51.134;16.980;2023-02-28T09:09:26;16.30;;;7.40;;
76848;SDS011;65814;51.134;16.980;2023-02-28T09:11:54;13.10;;;8.10;;
76848;SDS011;65814;51.134;16.980;2023-02-28T09:14:22;12.50;;;7.10;;
76848;SDS011;65814;51.134;16.980;2023-02-28T09:16:48;11.60;;;6.70;;
76848;SDS011;65814;51.134;16.980;2023-02-28T09:19:15;10.90;;;6.50;;
76848;SDS011;65814;51.134;16.980;2023-02-28T09:21:41;9.70;;;5.80;;
76848;SDS011;65814;51.134;16.980;2023-02-28T09:24:08;11.70;;;6.50;;
76848;SDS011;65814;51.134;16.980;2023-02-28T09:26:35;11.50;;;6.80;;
76848;SDS011;65814;51.134;16.980;2023-02-28T09:29:13;9.20;;;5.70;;
76848;SDS011;65814;51.134;16.980;2023-02-28T09:31:40;9.80;;;5.70;;
76848;SDS011;65814;51.134;16.980;2023-02-28T09:34:07;9.00;;;5.30;;
76848;SDS011;65814;51.134;16.980;2023-02-28T09:36:33;10.00;;;5.70;;
76848;SDS011;65814;51.134;16.980;2023-02-28T09:39:12;8.90;;;4.90;;
76848;SDS011;65814;51.134;16.980;2023-02-28T09:41:40;9.80;;;6.70;;
76848;SDS011;65814;51.134;16.980;2023-02-28T09:47:01;8.20;;;5.00;;
76848;SDS011;65814;51.134;16.980;2023-02-28T09:49:45;9.30;;;5.30;;
76848;SDS011;65814;51.134;16.980;2023-02-28T09:52:15;8.00;;;4.90;;
76848;SDS011;65814;51.134;16.980;2023-02-28T09:54:45;7.40;;;4.60;;
76848;SDS011;65814;51.134;16.980;2023-02-28T10:00:07;10.00;;;5.60;;
76848;SDS011;65814;51.134;16.980;2023-02-28T10:05:27;10.80;;;5.90;;
76848;SDS011;65814;51.134;16.980;2023-02-28T10:13:05;13.00;;;6.50;;
76848;SDS011;65814;51.134;16.980;2023-02-28T10:15:39;11.90;;;6.80;;
76848;SDS011;65814;51.134;16.980;2023-02-28T10:18:06;12.80;;;6.80;;
76848;SDS011;65814;51.134;16.980;2023-02-28T10:20:39;11.20;;;6.30;;
76848;SDS011;65814;51.134;16.980;2023-02-28T10:23:27;11.70;;;6.30;;
76848;SDS011;65814;51.134;16.980;2023-02-28T10:26:16;10.70;;;6.50;;
76848;SDS011;65814;51.134;16.980;2023-02-28T10:28:42;12.10;;;6.30;;
76848;SDS011;65814;51.134;16.980;2023-02-28T10:31:18;11.80;;;7.00;;
76848;SDS011;65814;51.134;16.980;2023-02-28T10:33:45;11.90;;;7.30;;
76848;SDS011;65814;51.134;16.980;2023-02-28T10:38:40;13.00;;;7.40;;
76848;SDS011;65814;51.134;16.980;2023-02-28T10:41:08;11.50;;;7.50;;
76848;SDS011;65814;51.134;16.980;2023-02-28T10:43:40;12.50;;;7.60;;
76848;SDS011;65814;51.134;16.980;2023-02-28T10:48:36;11.90;;;8.00;;
76848;SDS011;65814;51.134;16.980;2023-02-28T10:51:12;12.40;;;7.20;;
76848;SDS011;65814;51.134;16.980;2023-02-28T10:56:43;13.00;;;7.60;;
76848;SDS011;65814;51.134;16.980;2023-02-28T10:59:31;13.60;;;7.10;;
76848;SDS011;65814;51.134;16.980;2023-02-28T11:01:57;9.60;;;6.80;;
76848;SDS011;65814;51.134;16.980;2023-02-28T11:07:09;9.10;;;6.80;;
76848;SDS011;65814;51.134;16.980;2023-02-28T11:09:44;12.00;;;6.40;;
76848;SDS011;65814;51.134;16.980;2023-02-28T11:14:55;11.40;;;6.70;;
76848;SDS011;65814;51.134;16.980;2023-02-28T11:17:27;16.00;;;7.20;;
76848;SDS011;65814;51.134;16.980;2023-02-28T11:19:59;12.30;;;6.40;;
76848;SDS011;65814;51.134;16.980;2023-02-28T11:22:30;11.10;;;6.70;;
76848;SDS011;65814;51.134;16.980;2023-02-28T11:25:00;12.70;;;7.10;;
76848;SDS011;65814;51.134;16.980;2023-02-28T11:29:58;12.20;;;7.30;;
76848;SDS011;65814;51.134;16.980;2023-02-28T11:32:28;14.20;;;9.90;;
76848;SDS011;65814;51.134;16.980;2023-02-28T11:37:35;15.70;;;6.70;;
76848;SDS011;65814;51.134;16.980;2023-02-28T11:40:05;11.60;;;7.10;;
76848;SDS011;65814;51.134;16.980;2023-02-28T11:43:07;9.70;;;6.10;;
76848;SDS011;65814;51.134;16.980;2023-02-28T11:46:06;11.60;;;6.70;;
76848;SDS011;65814;51.134;16.980;2023-02-28T11:48:58;13.40;;;7.00;;
76848;SDS011;65814;51.134;16.980;2023-02-28T11:51:42;11.20;;;5.80;;
76848;SDS011;65814;51.134;16.980;2023-02-28T11:54:24;11.80;;;7.30;;
76848;SDS011;65814;51.134;16.980;2023-02-28T12:02:55;13.80;;;7.60;;
76848;SDS011;65814;51.134;16.980;2023-02-28T12:05:34;13.60;;;7.00;;
76848;SDS011;65814;51.134;16.980;2023-02-28T12:08:15;12.40;;;6.40;;
76848;SDS011;65814;51.134;16.980;2023-02-28T12:13:41;14.50;;;8.60;;
76848;SDS011;65814;51.134;16.980;2023-02-28T12:24:43;15.70;;;8.00;;
76848;SDS011;65814;51.134;16.980;2023-02-28T12:27:15;16.20;;;8.60;;
76848;SDS011;65814;51.134;16.980;2023-02-28T12:32:35;17.00;;;8.60;;
76848;SDS011;65814;51.134;16.980;2023-02-28T12:35:06;16.20;;;8.00;;
76848;SDS011;65814;51.134;16.980;2023-02-28T12:38:10;15.60;;;8.20;;
76848;SDS011;65814;51.134;16.980;2023-02-28T12:43:21;17.20;;;7.90;;
76848;SDS011;65814;51.134;16.980;2023-02-28T12:45:53;15.70;;;8.30;;
76848;SDS011;65814;51.134;16.980;2023-02-28T12:48:28;12.20;;;7.70;;
76848;SDS011;65814;51.134;16.980;2023-02-28T12:50:58;13.40;;;7.90;;
76848;SDS011;65814;51.134;16.980;2023-02-28T12:53:31;14.40;;;8.20;;
76848;SDS011;65814;51.134;16.980;2023-02-28T12:56:20;14.70;;;8.00;;
76848;SDS011;65814;51.134;16.980;2023-02-28T12:58:50;15.70;;;8.70;;
76848;SDS011;65814;51.134;16.980;2023-02-28T13:06:37;15.50;;;8.20;;
76848;SDS011;65814;51.134;16.980;2023-02-28T13:09:12;16.50;;;8.00;;
76848;SDS011;65814;51.134;16.980;2023-02-28T13:14:25;13.40;;;7.80;;
76848;SDS011;65814;51.134;16.980;2023-02-28T13:17:04;14.80;;;7.50;;
76848;SDS011;65814;51.134;16.980;2023-02-28T13:19:56;14.40;;;8.10;;
76848;SDS011;65814;51.134;16.980;2023-02-28T13:22:40;15.50;;;8.20;;
76848;SDS011;65814;51.134;16.980;2023-02-28T13:25:50;14.20;;;7.20;;
76848;SDS011;65814;51.134;16.980;2023-02-28T13:28:01;15.10;;;6.90;;
76848;SDS011;65814;51.134;16.980;2023-02-28T13:33:30;15.40;;;8.10;;
76848;SDS011;65814;51.134;16.980;2023-02-28T13:38:34;14.40;;;8.90;;
76848;SDS011;65814;51.134;16.980;2023-02-28T14:02:53;12.20;;;7.30;;
76848;SDS011;65814;51.134;16.980;2023-02-28T14:05:42;14.20;;;7.00;;
76848;SDS011;65814;51.134;16.980;2023-02-28T14:10:44;16.90;;;7.20;;
76848;SDS011;65814;51.134;16.980;2023-02-28T14:13:14;13.80;;;7.40;;
76848;SDS011;65814;51.134;16.980;2023-02-28T14:15:57;12.50;;;6.70;;
76848;SDS011;65814;51.134;16.980;2023-02-28T14:18:36;13.70;;;7.70;;
76848;SDS011;65814;51.134;16.980;2023-02-28T14:21:25;14.60;;;7.30;;
76848;SDS011;65814;51.134;16.980;2023-02-28T14:27:03;12.70;;;7.60;;
76848;SDS011;65814;51.134;16.980;2023-02-28T14:38:23;17.10;;;8.00;;
76848;SDS011;65814;51.134;16.980;2023-02-28T14:40:52;16.10;;;9.30;;
76848;SDS011;65814;51.134;16.980;2023-02-28T14:43:25;15.50;;;8.10;;
76848;SDS011;65814;51.134;16.980;2023-02-28T14:45:59;17.50;;;8.40;;
76848;SDS011;65814;51.134;16.980;2023-02-28T14:48:27;20.10;;;9.50;;
76848;SDS011;65814;51.134;16.980;2023-02-28T14:50:58;16.50;;;8.10;;
76848;SDS011;65814;51.134;16.980;2023-02-28T14:53:30;16.00;;;9.20;;
76848;SDS011;65814;51.134;16.980;2023-02-28T14:56:01;16.60;;;9.20;;
76848;SDS011;65814;51.134;16.980;2023-02-28T14:58:31;20.90;;;9.90;;
76848;SDS011;65814;51.134;16.980;2023-02-28T15:01:02;14.40;;;8.30;;
76848;SDS011;65814;51.134;16.980;2023-02-28T15:05:57;12.70;;;8.60;;
76848;SDS011;65814;51.134;16.980;2023-02-28T15:08:26;18.30;;;8.30;;
76848;SDS011;65814;51.134;16.980;2023-02-28T15:10:56;15.50;;;8.20;;
76848;SDS011;65814;51.134;16.980;2023-02-28T15:13:58;15.00;;;8.40;;
76848;SDS011;65814;51.134;16.980;2023-02-28T15:16:25;15.70;;;8.00;;
76848;SDS011;65814;51.134;16.980;2023-02-28T15:18:59;14.20;;;7.90;;
76848;SDS011;65814;51.134;16.980;2023-02-28T15:21:28;15.70;;;8.30;;
76848;SDS011;65814;51.134;16.980;2023-02-28T15:23:59;17.00;;;8.60;;
76848;SDS011;65814;51.134;16.980;2023-02-28T15:26:42;17.80;;;8.50;;
76848;SDS011;65814;51.134;16.980;2023-02-28T15:29:20;17.10;;;8.80;;
76848;SDS011;65814;51.134;16.980;2023-02-28T15:31:49;16.60;;;8.30;;
76848;SDS011;65814;51.134;16.980;2023-02-28T15:34:28;16.90;;;8.70;;
76848;SDS011;65814;51.134;16.980;2023-02-28T15:40:45;14.60;;;8.90;;
76848;SDS011;65814;51.134;16.980;2023-02-28T15:43:06;14.00;;;7.60;;
76848;SDS011;65814;51.134;16.980;2023-02-28T15:45:34;12.90;;;6.90;;
76848;SDS011;65814;51.134;16.980;2023-02-28T15:48:15;11.40;;;6.70;;
76848;SDS011;65814;51.134;16.980;2023-02-28T15:50:42;15.00;;;7.30;;
76848;SDS011;65814;51.134;16.980;2023-02-28T15:53:16;14.20;;;7.30;;
76848;SDS011;65814;51.134;16.980;2023-02-28T15:55:44;12.80;;;7.30;;
76848;SDS011;65814;51.134;16.980;2023-02-28T16:00:43;17.00;;;7.10;;
76848;SDS011;65814;51.134;16.980;2023-02-28T16:03:25;12.20;;;6.30;;
76848;SDS011;65814;51.134;16.980;2023-02-28T16:09:03;11.40;;;6.10;;
76848;SDS011;65814;51.134;16.980;2023-02-28T16:11:30;13.40;;;6.90;;
76848;SDS011;65814;51.134;16.980;2023-02-28T16:13:59;13.50;;;7.30;;
76848;SDS011;65814;51.134;16.980;2023-02-28T16:16:26;13.80;;;6.80;;
76848;SDS011;65814;51.134;16.980;2023-02-28T16:18:53;12.60;;;7.50;;
76848;SDS011;65814;51.134;16.980;2023-02-28T16:23:46;14.50;;;7.70;;
76848;SDS011;65814;51.134;16.980;2023-02-28T16:26:16;15.90;;;9.00;;
76848;SDS011;65814;51.134;16.980;2023-02-28T16:28:46;18.50;;;10.70;;
76848;SDS011;65814;51.134;16.980;2023-02-28T16:31:13;27.00;;;13.00;;
76848;SDS011;65814;51.134;16.980;2023-02-28T16:33:43;24.20;;;12.10;;
76848;SDS011;65814;51.134;16.980;2023-02-28T16:36:15;23.70;;;11.40;;
76848;SDS011;65814;51.134;16.980;2023-02-28T16:38:45;17.50;;;9.50;;
76848;SDS011;65814;51.134;16.980;2023-02-28T16:41:14;16.70;;;9.20;;
76848;SDS011;65814;51.134;16.980;2023-02-28T16:43:46;16.50;;;9.30;;
76848;SDS011;65814;51.134;16.980;2023-02-28T16:46:14;13.80;;;9.00;;
76848;SDS011;65814;51.134;16.980;2023-02-28T16:48:41;20.50;;;11.10;;
76848;SDS011;65814;51.134;16.980;2023-02-28T16:51:12;20.90;;;11.20;;
76848;SDS011;65814;51.134;16.980;2023-02-28T16:53:40;26.00;;;13.30;;
76848;SDS011;65814;51.134;16.980;2023-02-28T16:58:38;31.20;;;14.00;;
76848;SDS011;65814;51.134;16.980;2023-02-28T17:03:32;28.00;;;15.50;;
76848;SDS011;65814;51.134;16.980;2023-02-28T17:06:00;37.90;;;18.00;;
76848;SDS011;65814;51.134;16.980;2023-02-28T17:08:27;35.00;;;18.20;;
76848;SDS011;65814;51.134;16.980;2023-02-28T17:10:55;33.60;;;16.80;;
76848;SDS011;65814;51.134;16.980;2023-02-28T17:13:22;32.50;;;17.00;;
76848;SDS011;65814;51.134;16.980;2023-02-28T17:15:48;36.10;;;19.00;;
76848;SDS011;65814;51.134;16.980;2023-02-28T17:18:16;33.10;;;18.50;;
76848;SDS011;65814;51.134;16.980;2023-02-28T17:20:47;31.60;;;17.30;;
76848;SDS011;65814;51.134;16.980;2023-02-28T17:23:14;33.90;;;18.80;;
76848;SDS011;65814;51.134;16.980;2023-02-28T17:25:42;31.40;;;16.90;;
76848;SDS011;65814;51.134;16.980;2023-02-28T17:28:23;32.10;;;17.00;;
76848;SDS011;65814;51.134;16.980;2023-02-28T17:30:49;40.00;;;18.60;;
76848;SDS011;65814;51.134;16.980;2023-02-28T17:35:43;38.10;;;18.20;;
76848;SDS011;65814;51.134;16.980;2023-02-28T17:38:17;31.10;;;18.50;;
76848;SDS011;65814;51.134;16.980;2023-02-28T17:40:45;44.40;;;23.10;;